Pagrindinis puslapis
METAR-TAF:

METAR-TAF

Oro uostai :

Kermanas, Iranas

platuma: 30-15N, ilguma: 056-58E, Aukštis: 1748 m

Dabartinis oras

Ataskaita buvo paskelbta 13 minutes, ne 08:00 UTC
Vėjas 12 kt iš Vakarų/Pietvakarių
Temperatūra 30°C
Drėgmė 21%
Slėgis 1017 hPa
Matomumas 10 km arba daugiau
Mažai debesys ne aukštis 4000 ft

METAR: OIKK 240800Z 24012KT 9999 FEW040 30/05 Q1016 A3002

Laikas: 12:43 (08:13 UTC)

Prognozė

Ataskaita buvo paskelbta 2 valandos ir 43 minutes, ne 05:30 UTC
Prognozė galioja nuo 24 metu 06 UTC su 25 metu 12 UTC
Vėjas 7 kt iš Vakarų/Pietvakarių
Matomumas: 8000 m
Laikinai
nuo 24 metu 07 UTC su 24 metu 17 UTC
Vėjas 15 kt iš Vakarų/Pietvakarių
Laikinai
nuo 24 metu 17 UTC su 24 metu 23 UTC
Vėjas 11 kt iš Šiaurės

TAF: OIKK 240530Z 2406/2512 24007KT 8000 NSC TEMPO 2407/2417 24015KT TEMPO 2417/2423 36011KT

Orai ataskaitas ir orų prognozės (METAR, TAF).

turimą stotys yra geltonos ir raudonos taškus žemėlapyje.

Perkelti pele per norėdami pamatyti stoties vardą.

Tada spustelėkite, norėdami matyti oro stebėjimo ir prognozės.

Norėdami pakeisti žemėlapį: spustelėkite ant žalios mygtukų su juodo kryžiaus žemyn,; žalią mygtuką su brūkšneliu, jei norite nutolinti; arba žalių rodyklių gretimoms žemėlapius.


METAR-TAF: